createdAt,value
2023-10-23T00:00:53.161Z,96.15
2023-10-23T00:03:21.350Z,99.66
2023-10-23T00:05:49.496Z,100.00
2023-10-23T00:08:17.612Z,100.00
2023-10-23T00:10:46.220Z,100.00
2023-10-23T00:13:14.341Z,100.00
2023-10-23T00:15:43.833Z,100.00
2023-10-23T00:18:11.826Z,100.00
2023-10-23T00:20:39.791Z,100.00
2023-10-23T00:23:07.769Z,100.00
2023-10-23T00:25:36.779Z,100.00
2023-10-23T00:28:04.913Z,100.00
2023-10-23T00:30:36.772Z,100.00
2023-10-23T00:33:06.375Z,100.00
2023-10-23T00:35:34.463Z,100.00
2023-10-23T00:38:02.477Z,100.00
2023-10-23T00:40:32.894Z,100.00
2023-10-23T00:43:13.528Z,100.00
2023-10-23T00:45:52.114Z,100.00
2023-10-23T00:48:23.819Z,100.00
2023-10-23T00:50:53.346Z,100.00
2023-10-23T00:53:26.684Z,100.00
2023-10-23T00:55:56.932Z,100.00
2023-10-23T00:58:27.385Z,100.00
2023-10-23T01:00:59.179Z,100.00
2023-10-23T01:03:28.624Z,100.00
2023-10-23T01:05:56.746Z,100.00
2023-10-23T01:08:24.936Z,100.00
2023-10-23T01:10:53.429Z,100.00
2023-10-23T01:13:21.400Z,100.00
2023-10-23T01:15:49.799Z,100.00
2023-10-23T01:18:17.815Z,100.00
2023-10-23T01:20:47.304Z,100.00
2023-10-23T01:23:15.456Z,100.00
2023-10-23T01:25:44.763Z,100.00
2023-10-23T01:28:12.757Z,100.00
2023-10-23T01:30:41.702Z,100.00
2023-10-23T01:33:09.889Z,100.00
2023-10-23T01:35:37.873Z,100.00
2023-10-23T01:38:05.844Z,100.00
2023-10-23T01:40:33.973Z,100.00
2023-10-23T01:43:03.415Z,100.00
2023-10-23T01:45:31.376Z,100.00
2023-10-23T01:47:59.428Z,100.00
2023-10-23T01:50:27.376Z,100.00
2023-10-23T01:52:55.346Z,100.00
2023-10-23T01:55:23.305Z,100.00
2023-10-23T01:57:51.620Z,100.00
2023-10-23T02:00:21.169Z,100.00
2023-10-23T02:02:49.189Z,100.00
2023-10-23T02:05:17.143Z,100.00
2023-10-23T02:07:45.097Z,100.00
2023-10-23T02:10:13.034Z,100.00
2023-10-23T02:12:41.072Z,100.00
2023-10-23T02:15:11.406Z,100.00
2023-10-23T02:17:40.975Z,100.00
2023-10-23T02:20:09.548Z,100.00
2023-10-23T02:22:37.765Z,100.00
2023-10-23T02:25:06.887Z,100.00
2023-10-23T02:27:34.853Z,100.00
2023-10-23T02:30:03.007Z,100.00
2023-10-23T02:32:31.074Z,100.00
2023-10-23T02:35:00.502Z,100.00
2023-10-23T02:37:28.441Z,100.00
2023-10-23T02:39:58.527Z,100.00
2023-10-23T02:42:26.535Z,100.00
2023-10-23T02:44:55.270Z,100.00
2023-10-23T02:47:23.265Z,100.00
2023-10-23T02:49:51.288Z,100.00
2023-10-23T02:52:22.143Z,100.00
2023-10-23T02:54:51.982Z,100.00
2023-10-23T02:57:20.101Z,100.00
2023-10-23T02:59:48.940Z,100.00
2023-10-23T03:02:17.903Z,100.00
2023-10-23T03:04:45.874Z,100.00
2023-10-23T03:07:14.599Z,100.00
2023-10-23T03:09:44.223Z,100.00
2023-10-23T03:12:12.223Z,100.00
2023-10-23T03:14:40.230Z,100.00
2023-10-23T03:17:08.594Z,100.00
2023-10-23T03:19:36.684Z,100.00
2023-10-23T03:22:05.204Z,100.00
2023-10-23T03:24:34.976Z,100.00
2023-10-23T03:27:04.585Z,100.00
2023-10-23T03:29:32.662Z,100.00
2023-10-23T03:32:00.636Z,100.00
2023-10-23T03:34:28.606Z,100.00
2023-10-23T03:36:56.604Z,100.00
2023-10-23T03:39:24.693Z,100.00
2023-10-23T03:41:52.682Z,100.00
2023-10-23T03:44:22.013Z,100.00
2023-10-23T03:46:50.008Z,100.00
2023-10-23T03:49:18.056Z,100.00
2023-10-23T03:51:46.020Z,100.00
2023-10-23T03:54:14.026Z,100.00
2023-10-23T03:56:42.019Z,100.00
2023-10-23T03:59:10.050Z,100.00
2023-10-23T04:01:39.456Z,100.00
2023-10-23T04:04:08.386Z,100.00
2023-10-23T04:06:37.110Z,100.00
2023-10-23T04:09:05.349Z,100.00
2023-10-23T04:11:33.357Z,100.00
2023-10-23T04:14:01.305Z,100.00
2023-10-23T04:16:29.370Z,100.00
2023-10-23T04:18:58.752Z,100.00
2023-10-23T04:21:26.850Z,100.00
2023-10-23T04:23:54.830Z,100.00
2023-10-23T04:26:22.889Z,100.00
2023-10-23T04:28:50.832Z,100.00
2023-10-23T04:31:18.814Z,100.00
2023-10-23T04:33:46.803Z,100.00
2023-10-23T04:36:16.132Z,100.00
2023-10-23T04:38:44.221Z,100.00
2023-10-23T04:41:12.309Z,100.00
2023-10-23T04:43:40.450Z,100.00
2023-10-23T04:46:08.472Z,100.00
2023-10-23T04:48:36.528Z,100.00
2023-10-23T04:51:04.544Z,100.00
2023-10-23T04:53:33.903Z,100.00
2023-10-23T04:56:01.879Z,100.00
2023-10-23T04:58:30.932Z,100.00
2023-10-23T05:00:59.105Z,100.00
2023-10-23T05:03:27.253Z,100.00
2023-10-23T05:05:55.265Z,100.00
2023-10-23T05:08:23.289Z,100.00
2023-10-23T05:10:53.113Z,100.00
2023-10-23T05:13:21.133Z,100.00
2023-10-23T05:15:49.133Z,100.00
2023-10-23T05:18:17.102Z,100.00
2023-10-23T05:20:45.103Z,100.00
2023-10-23T05:23:13.051Z,100.00
2023-10-23T05:25:41.050Z,100.00
2023-10-23T05:28:10.394Z,100.00
2023-10-23T05:30:38.374Z,100.00
2023-10-23T05:33:06.379Z,100.00
2023-10-23T05:35:34.396Z,100.00
2023-10-23T05:38:02.351Z,100.00
2023-10-23T05:40:30.330Z,100.00
2023-10-23T05:42:58.316Z,100.00
2023-10-23T05:45:27.882Z,100.00
2023-10-23T05:47:55.879Z,100.00
2023-10-23T05:50:24.027Z,100.00
2023-10-23T05:52:51.987Z,100.00
2023-10-23T05:55:22.007Z,100.00
2023-10-23T05:57:50.041Z,100.00
2023-10-23T06:00:18.993Z,100.00
2023-10-23T06:02:48.502Z,100.00
2023-10-23T06:05:16.484Z,100.00
2023-10-23T06:07:44.576Z,100.00
2023-10-23T06:10:12.683Z,100.00
2023-10-23T06:12:40.703Z,100.00
2023-10-23T06:15:11.325Z,100.00
2023-10-23T06:17:39.377Z,100.00
2023-10-23T06:20:10.806Z,100.00
2023-10-23T06:22:38.748Z,100.00
2023-10-23T06:25:07.317Z,100.00
2023-10-23T06:27:35.291Z,100.00
2023-10-23T06:30:04.213Z,100.00
2023-10-23T06:32:35.876Z,100.00
2023-10-23T06:35:05.276Z,100.00
2023-10-23T06:37:34.960Z,100.00
2023-10-23T06:40:04.217Z,100.00
2023-10-23T06:42:32.251Z,100.00
2023-10-23T06:45:00.504Z,100.00
2023-10-23T06:47:28.865Z,100.00
2023-10-23T06:49:56.915Z,100.00
2023-10-23T06:52:25.020Z,100.00
2023-10-23T06:54:54.435Z,100.00
2023-10-23T06:57:22.562Z,100.00
2023-10-23T06:59:51.592Z,100.00
2023-10-23T07:02:19.710Z,100.00
2023-10-23T07:04:49.197Z,100.00
2023-10-23T07:07:28.761Z,100.00
2023-10-23T07:10:01.704Z,100.00
2023-10-23T07:12:30.373Z,100.00
2023-10-23T07:14:58.568Z,100.00
2023-10-23T07:17:26.750Z,100.00
2023-10-23T07:19:54.797Z,99.54
2023-10-23T07:22:23.020Z,99.00
2023-10-23T07:24:50.993Z,99.28
2023-10-23T07:27:20.459Z,100.00
2023-10-23T07:29:48.874Z,98.88
2023-10-23T07:32:17.077Z,99.41
2023-10-23T07:34:45.357Z,98.30
2023-10-23T07:37:19.206Z,96.88
2023-10-23T07:39:48.987Z,96.37
2023-10-23T07:42:17.525Z,95.76
2023-10-23T07:44:47.033Z,94.97
2023-10-23T07:47:15.434Z,93.61
2023-10-23T07:49:43.471Z,93.26
2023-10-23T07:52:11.640Z,91.75
2023-10-23T07:54:39.785Z,90.96
2023-10-23T07:57:07.796Z,91.32
2023-10-23T07:59:35.814Z,91.42
2023-10-23T08:02:05.717Z,91.85
2023-10-23T08:04:34.258Z,91.76
2023-10-23T08:07:02.608Z,91.10
2023-10-23T08:09:30.721Z,91.12
2023-10-23T08:11:58.857Z,91.39
2023-10-23T08:14:26.938Z,91.20
2023-10-23T08:16:54.996Z,91.82
2023-10-23T08:19:24.636Z,91.21
2023-10-23T08:21:53.484Z,91.49
2023-10-23T08:24:21.523Z,93.30
2023-10-23T08:26:49.464Z,92.73
2023-10-23T08:29:17.453Z,92.64
2023-10-23T08:31:45.477Z,91.78
2023-10-23T08:34:13.534Z,92.05
2023-10-23T08:36:43.048Z,92.49
2023-10-23T08:39:11.791Z,92.24
2023-10-23T08:41:42.776Z,91.56
2023-10-23T08:44:12.007Z,90.63
2023-10-23T08:46:42.307Z,89.66
2023-10-23T08:49:10.605Z,89.34
2023-10-23T08:51:43.611Z,89.91
2023-10-23T08:54:18.709Z,89.07
2023-10-23T08:56:48.929Z,88.81
2023-10-23T08:59:16.962Z,87.09
2023-10-23T09:01:45.057Z,86.25
2023-10-23T09:04:14.207Z,86.95
2023-10-23T09:06:44.734Z,82.70
2023-10-23T09:09:12.956Z,83.20
2023-10-23T09:11:44.733Z,82.60
2023-10-23T09:14:24.028Z,82.57
2023-10-23T09:16:53.454Z,83.22
2023-10-23T09:19:31.058Z,83.12
2023-10-23T09:22:00.865Z,85.03
2023-10-23T09:24:29.163Z,85.18
2023-10-23T09:26:57.385Z,86.52
2023-10-23T09:29:26.073Z,85.78
2023-10-23T09:31:56.072Z,86.11
2023-10-23T09:34:24.274Z,86.71
2023-10-23T09:36:53.983Z,86.07
2023-10-23T09:39:24.294Z,86.73
2023-10-23T09:41:54.317Z,85.93
2023-10-23T09:44:25.640Z,84.97
2023-10-23T09:46:56.087Z,86.13
2023-10-23T09:49:25.382Z,84.42
2023-10-23T09:52:01.634Z,84.37
2023-10-23T09:54:33.946Z,83.17
2023-10-23T09:57:06.158Z,83.88
2023-10-23T09:59:43.793Z,84.59
2023-10-23T10:02:12.430Z,85.23
2023-10-23T10:04:53.632Z,84.85
2023-10-23T10:07:28.584Z,84.64
2023-10-23T10:09:59.122Z,83.92
2023-10-23T10:12:29.256Z,83.42
2023-10-23T10:14:59.796Z,82.55
2023-10-23T10:17:29.943Z,82.53
2023-10-23T10:19:58.680Z,81.82
2023-10-23T10:22:32.733Z,83.40
2023-10-23T10:25:02.566Z,82.89
2023-10-23T10:27:30.878Z,82.50
2023-10-23T10:30:05.440Z,82.74
2023-10-23T10:32:34.878Z,82.54
2023-10-23T10:35:41.714Z,81.81
2023-10-23T10:38:13.991Z,80.81
2023-10-23T10:41:00.292Z,80.63
2023-10-23T10:43:33.576Z,80.34
2023-10-23T10:46:03.357Z,80.56
2023-10-23T10:48:44.250Z,79.54
2023-10-23T10:51:15.760Z,79.23
2023-10-23T10:53:44.132Z,79.04
2023-10-23T10:56:14.040Z,79.22
2023-10-23T10:58:44.456Z,78.60
2023-10-23T11:01:12.611Z,78.14
2023-10-23T11:03:42.579Z,79.38
2023-10-23T11:06:11.551Z,78.08
2023-10-23T11:08:42.755Z,78.95
2023-10-23T11:11:10.931Z,77.92
2023-10-23T11:13:41.349Z,77.67
2023-10-23T11:16:09.540Z,77.66
2023-10-23T11:18:38.105Z,78.89
2023-10-23T11:21:07.788Z,79.14
2023-10-23T11:23:35.739Z,79.03
2023-10-23T11:26:05.043Z,79.47
2023-10-23T11:28:33.087Z,79.42
2023-10-23T11:31:02.605Z,78.60
2023-10-23T11:33:30.693Z,78.01
2023-10-23T11:35:58.782Z,76.59
2023-10-23T11:38:28.545Z,77.51
2023-10-23T11:40:56.927Z,77.08
2023-10-23T11:43:25.162Z,77.32
2023-10-23T11:45:53.509Z,76.87
2023-10-23T11:48:23.456Z,77.06
2023-10-23T11:50:53.744Z,76.80
2023-10-23T11:53:22.078Z,77.39
2023-10-23T11:55:52.246Z,76.71
2023-10-23T11:58:28.086Z,77.08
2023-10-23T12:00:56.285Z,76.51
2023-10-23T12:03:25.735Z,76.23
2023-10-23T12:05:54.312Z,75.93
2023-10-23T12:08:22.612Z,75.06
2023-10-23T12:10:51.033Z,75.09
2023-10-23T12:13:19.221Z,74.93
2023-10-23T12:15:47.424Z,75.02
2023-10-23T12:18:15.554Z,75.07
2023-10-23T12:20:45.367Z,75.43
2023-10-23T12:23:13.602Z,75.22
2023-10-23T12:25:41.748Z,75.02
2023-10-23T12:28:09.955Z,75.44
2023-10-23T12:30:38.459Z,74.87
2023-10-23T12:33:16.609Z,74.55
2023-10-23T12:35:53.717Z,74.25
2023-10-23T12:38:23.204Z,76.24
2023-10-23T12:40:51.411Z,74.60
2023-10-23T12:43:19.568Z,75.69
2023-10-23T12:45:48.126Z,75.12
2023-10-23T12:48:16.369Z,75.45
2023-10-23T12:50:46.051Z,76.99
2023-10-23T12:53:16.220Z,75.76
2023-10-23T12:55:44.953Z,77.61
2023-10-23T12:58:12.996Z,77.99
2023-10-23T13:00:41.137Z,76.69
2023-10-23T13:03:09.134Z,78.66
2023-10-23T13:05:37.623Z,78.60
2023-10-23T13:08:06.048Z,77.82
2023-10-23T13:10:35.558Z,76.49
2023-10-23T13:13:03.937Z,77.05
2023-10-23T13:15:32.026Z,77.37
2023-10-23T13:18:02.724Z,77.55
2023-10-23T13:21:29.814Z,77.57
2023-10-23T13:23:19.293Z,78.20
2023-10-23T13:25:58.068Z,78.12
2023-10-23T13:28:35.276Z,79.25
2023-10-23T13:31:03.947Z,78.39
2023-10-23T13:33:32.060Z,78.70
2023-10-23T13:36:00.390Z,79.24
2023-10-23T13:38:28.574Z,78.43
2023-10-23T13:40:58.319Z,77.96
2023-10-23T13:43:27.859Z,78.05
2023-10-23T13:45:56.040Z,77.46
2023-10-23T13:48:24.150Z,77.65
2023-10-23T13:50:52.853Z,77.16
2023-10-23T13:53:23.080Z,78.12
2023-10-23T13:55:51.582Z,78.65
2023-10-23T13:58:21.720Z,77.97
2023-10-23T14:00:49.982Z,78.64
2023-10-23T14:03:18.213Z,78.60
2023-10-23T14:05:46.517Z,78.97
2023-10-23T14:08:14.549Z,79.76
2023-10-23T14:10:42.547Z,80.31
2023-10-23T14:13:10.666Z,80.67
2023-10-23T14:15:40.178Z,80.08
2023-10-23T14:18:08.199Z,80.87
2023-10-23T14:20:36.270Z,82.16
2023-10-23T14:23:05.092Z,81.57
2023-10-23T14:25:33.220Z,81.24
2023-10-23T14:28:01.403Z,82.21
2023-10-23T14:30:29.574Z,83.30
2023-10-23T14:32:59.050Z,84.67
2023-10-23T14:35:32.430Z,85.00
2023-10-23T14:38:01.171Z,84.90
2023-10-23T14:40:29.238Z,84.46
2023-10-23T14:42:58.403Z,84.48
2023-10-23T14:45:26.572Z,84.83
2023-10-23T14:47:54.868Z,84.96
2023-10-23T14:50:24.238Z,85.82
2023-10-23T14:52:52.250Z,86.07
2023-10-23T14:55:20.219Z,86.68
2023-10-23T14:57:48.236Z,87.32
2023-10-23T15:00:16.810Z,88.96
2023-10-23T15:02:46.186Z,88.02
2023-10-23T15:05:14.240Z,89.17
2023-10-23T15:07:43.695Z,90.60
2023-10-23T15:10:11.835Z,89.66
2023-10-23T15:12:39.913Z,92.30
2023-10-23T15:15:09.427Z,90.82
2023-10-23T15:17:37.506Z,90.03
2023-10-23T15:20:06.212Z,89.04
2023-10-23T15:22:35.529Z,91.21
2023-10-23T15:25:05.726Z,89.60
2023-10-23T15:27:33.915Z,92.23
2023-10-23T15:30:01.978Z,91.09
2023-10-23T15:32:32.002Z,89.78
2023-10-23T15:35:00.121Z,88.88
2023-10-23T15:37:28.282Z,89.22
2023-10-23T15:39:56.383Z,89.01
2023-10-23T15:42:26.318Z,89.81
2023-10-23T15:44:58.255Z,89.28
2023-10-23T15:47:26.371Z,90.40
2023-10-23T15:49:54.384Z,89.73
2023-10-23T15:52:22.416Z,89.67
2023-10-23T15:54:50.430Z,89.38
2023-10-23T15:57:18.400Z,90.11
2023-10-23T15:59:47.999Z,90.07
2023-10-23T16:02:16.466Z,90.17
2023-10-23T16:04:48.275Z,90.30
2023-10-23T16:07:16.617Z,89.90
2023-10-23T16:09:44.710Z,92.65
2023-10-23T16:12:12.740Z,90.82
2023-10-23T16:17:13.142Z,91.33
2023-10-23T16:19:41.278Z,91.51
2023-10-23T16:22:09.746Z,91.27
2023-10-23T16:24:38.025Z,91.07
2023-10-23T16:27:06.723Z,93.26
2023-10-23T16:29:34.747Z,93.49
2023-10-23T16:32:02.924Z,93.86
2023-10-23T16:34:33.865Z,93.27
2023-10-23T16:37:01.880Z,94.80
2023-10-23T16:39:31.944Z,94.77
2023-10-23T16:42:00.211Z,95.29
2023-10-23T16:44:37.452Z,94.87
2023-10-23T16:47:14.368Z,94.93
2023-10-23T16:49:44.351Z,93.00
2023-10-23T16:52:12.361Z,94.35
2023-10-23T16:54:40.631Z,93.63
2023-10-23T16:57:10.362Z,93.92
2023-10-23T16:59:39.059Z,94.63
2023-10-23T17:02:07.371Z,94.46
2023-10-23T17:04:35.739Z,93.25
2023-10-23T17:07:05.797Z,94.51
2023-10-23T17:09:33.816Z,95.87
2023-10-23T17:12:01.788Z,95.96
2023-10-23T17:14:29.858Z,96.23
2023-10-23T17:16:57.895Z,97.17
2023-10-23T17:19:26.099Z,97.44
2023-10-23T17:21:54.137Z,97.18
2023-10-23T17:24:23.489Z,97.67
2023-10-23T17:26:51.449Z,97.44
2023-10-23T17:29:19.457Z,97.94
2023-10-23T17:31:48.415Z,96.75
2023-10-23T17:34:18.092Z,96.69
2023-10-23T17:36:46.064Z,96.63
2023-10-23T17:39:14.040Z,96.78
2023-10-23T17:41:43.718Z,96.82
2023-10-23T17:44:11.696Z,95.15
2023-10-23T17:46:39.758Z,93.74
2023-10-23T17:49:07.911Z,94.41
2023-10-23T17:51:36.444Z,95.52
2023-10-23T17:54:06.209Z,95.63
2023-10-23T17:56:37.390Z,95.88
2023-10-23T17:59:07.001Z,95.62
2023-10-23T18:01:35.226Z,95.43
2023-10-23T18:04:03.384Z,95.50
2023-10-23T18:06:32.271Z,94.67
2023-10-23T18:09:02.072Z,94.38
2023-10-23T18:11:30.369Z,92.27
2023-10-23T18:13:58.375Z,92.47
2023-10-23T18:16:28.832Z,91.93
2023-10-23T18:18:57.283Z,92.61
2023-10-23T18:21:25.389Z,92.72
2023-10-23T18:23:53.344Z,92.08
2023-10-23T18:26:21.381Z,91.79
2023-10-23T18:28:49.317Z,91.52
2023-10-23T18:31:17.375Z,91.75
2023-10-23T18:33:46.834Z,91.37
2023-10-23T18:36:17.271Z,91.06
2023-10-23T18:38:46.192Z,91.40
2023-10-23T18:41:18.580Z,90.25
2023-10-23T18:43:46.993Z,90.35
2023-10-23T18:46:15.868Z,90.81
2023-10-23T18:48:45.055Z,91.17
2023-10-23T18:51:14.875Z,91.29
2023-10-23T18:53:42.945Z,90.37
2023-10-23T18:56:11.394Z,90.66
2023-10-23T18:58:42.978Z,90.59
2023-10-23T19:01:13.435Z,89.16
2023-10-23T19:03:43.758Z,89.17
2023-10-23T19:06:11.812Z,89.45
2023-10-23T19:08:42.269Z,88.13
2023-10-23T19:11:10.575Z,88.27
2023-10-23T19:13:38.616Z,88.63
2023-10-23T19:16:08.204Z,88.12
2023-10-23T19:18:37.465Z,89.02
2023-10-23T19:21:09.791Z,89.24
2023-10-23T19:23:37.893Z,88.89
2023-10-23T19:26:07.564Z,88.71
2023-10-23T19:28:36.508Z,88.30
2023-10-23T19:31:13.625Z,89.01
2023-10-23T19:33:43.524Z,89.22
2023-10-23T19:36:13.219Z,88.33
2023-10-23T19:38:43.534Z,88.37
2023-10-23T19:41:16.273Z,88.60
2023-10-23T19:43:49.364Z,89.39
2023-10-23T19:46:17.965Z,88.30
2023-10-23T19:48:47.342Z,89.84
2023-10-23T19:51:17.962Z,88.97
2023-10-23T19:53:51.889Z,89.00
2023-10-23T19:56:29.948Z,88.96
2023-10-23T19:59:00.365Z,90.15
2023-10-23T20:01:28.562Z,88.99
2023-10-23T20:03:56.720Z,89.86
2023-10-23T20:06:24.850Z,89.74
2023-10-23T20:08:52.844Z,89.64
2023-10-23T20:11:22.324Z,88.92
2023-10-23T20:13:50.304Z,89.19
2023-10-23T20:16:18.349Z,89.89
2023-10-23T20:18:46.313Z,89.33
2023-10-23T20:21:15.336Z,88.96
2023-10-23T20:23:43.379Z,90.53
2023-10-23T20:26:15.377Z,89.25
2023-10-23T20:28:45.389Z,89.34
2023-10-23T20:31:18.799Z,89.46
2023-10-23T20:33:47.471Z,89.45
2023-10-23T20:36:15.456Z,89.40
2023-10-23T20:38:43.380Z,89.83
2023-10-23T20:41:16.975Z,90.49
2023-10-23T20:43:47.807Z,89.68
2023-10-23T20:46:16.305Z,90.20
2023-10-23T20:48:44.443Z,92.13
2023-10-23T20:51:12.900Z,92.59
2023-10-23T20:53:41.014Z,92.80
2023-10-23T20:56:09.430Z,92.57
2023-10-23T20:58:38.945Z,93.02
2023-10-23T21:01:09.538Z,93.22
2023-10-23T21:03:37.945Z,94.53
2023-10-23T21:06:07.503Z,95.46
2023-10-23T21:08:38.070Z,94.83
2023-10-23T21:11:06.739Z,95.51
2023-10-23T21:13:35.237Z,95.83
2023-10-23T21:16:03.893Z,95.61
2023-10-23T21:18:33.229Z,94.77
2023-10-23T21:21:01.476Z,96.62
2023-10-23T21:23:30.226Z,95.85
2023-10-23T21:25:58.528Z,100.00
2023-10-23T21:28:27.107Z,99.62
2023-10-23T21:30:55.343Z,99.78
2023-10-23T21:33:23.428Z,100.00
2023-10-23T21:35:53.601Z,100.00
2023-10-23T21:38:21.597Z,100.00
2023-10-23T21:40:50.081Z,100.00
2023-10-23T21:43:19.564Z,100.00
2023-10-23T21:45:47.772Z,100.00
2023-10-23T21:48:18.283Z,100.00
2023-10-23T21:50:46.501Z,100.00
2023-10-23T21:53:16.547Z,100.00
2023-10-23T21:55:44.998Z,100.00
2023-10-23T21:58:13.574Z,100.00
2023-10-23T22:00:41.879Z,100.00
2023-10-23T22:03:10.175Z,100.00
2023-10-23T22:05:38.777Z,100.00
2023-10-23T22:08:07.410Z,100.00
2023-10-23T22:10:37.553Z,100.00
2023-10-23T22:13:05.985Z,100.00
2023-10-23T22:15:33.900Z,100.00
2023-10-23T22:18:02.231Z,100.00
2023-10-23T22:20:30.236Z,100.00
2023-10-23T22:22:58.168Z,100.00
2023-10-23T22:25:26.148Z,100.00
2023-10-23T22:27:55.732Z,100.00
2023-10-23T22:30:23.783Z,100.00
2023-10-23T22:33:03.873Z,100.00
2023-10-23T22:35:40.185Z,100.00
2023-10-23T22:38:10.032Z,100.00
2023-10-23T22:40:38.246Z,100.00
2023-10-23T22:43:07.768Z,100.00
2023-10-23T22:45:41.355Z,100.00
2023-10-23T22:48:19.151Z,100.00
2023-10-23T22:50:47.705Z,100.00
2023-10-23T22:53:16.120Z,100.00
2023-10-23T22:55:44.609Z,100.00
2023-10-23T22:58:19.062Z,100.00
2023-10-23T23:00:47.444Z,100.00
2023-10-23T23:03:15.924Z,100.00
2023-10-23T23:05:46.453Z,100.00
2023-10-23T23:08:15.844Z,100.00
2023-10-23T23:10:44.205Z,100.00
2023-10-23T23:13:14.297Z,100.00
2023-10-23T23:15:46.149Z,100.00
2023-10-23T23:18:18.624Z,100.00
2023-10-23T23:20:51.975Z,100.00
2023-10-23T23:23:19.946Z,100.00
2023-10-23T23:25:47.887Z,100.00
2023-10-23T23:28:17.261Z,100.00
2023-10-23T23:30:45.287Z,100.00
2023-10-23T23:33:13.251Z,100.00
2023-10-23T23:35:41.225Z,100.00
2023-10-23T23:38:09.175Z,100.00
2023-10-23T23:40:37.172Z,100.00
2023-10-23T23:43:05.295Z,100.00
2023-10-23T23:45:34.677Z,100.00
2023-10-23T23:48:02.767Z,100.00
2023-10-23T23:50:30.763Z,100.00
2023-10-23T23:52:59.337Z,100.00
2023-10-23T23:55:27.900Z,100.00
2023-10-23T23:57:55.949Z,100.00
